Tuesday, October 16, 2018, 10:49 PM GMT
Back to Local

CWNE, North Point, Prince Edward Island

Location: , , Canada Lat: 47.083
Local Time: 10:49 PM GMT (22:49 GMT) Lon: -64
Time Zone: GMT Elev: 49 ft

Show me the last for .
Show Coded

Time T Td Feel RH Dir Speed Gust Alt SLP Vis Weather Sky Remarks
2018-10-16 22:00 48 38 39 66 290° 28 33 - 29.60 0 Peak wind: 39 mph (34 kts) from 280° at 02 min
2018-10-16 21:00 50 35 41 55 270° 33 40 - 29.56 0 Peak wind: 46 mph (40 kts) from 280° at 02 min
2018-10-16 20:00 50 38 40 63 270° 37 46 - 29.52 0 Peak wind: 47 mph (41 kts) from 270° at 19 min
2018-10-16 19:00 50 39 40 65 270° 38 46 - 29.49 0 Peak wind: 46 mph (40 kts) from 270° at 54 min
2018-10-16 18:00 50 40 40 68 270° 37 46 - 29.45 0 Peak wind: 49 mph (43 kts) from 260° at 37 min
Pressure rising rapidly
2018-10-16 17:00 50 38 39 65 280° 41 51 - 29.39 0 Peak wind: 54 mph (47 kts) from 270° at 03 min
2018-10-16 16:00 48 38 37 68 270° 45 54 - 29.34 0 Peak wind: 59 mph (52 kts) from 270° at 12 min
2018-10-16 15:00 47 37 35 69 260° 43 53 - 29.31 0 Peak wind: 60 mph (53 kts) from 260° at 47 min
2018-10-16 14:00 46 36 33 67 260° 49 61 - 29.28 0 Peak wind: 60 mph (53 kts) from 260° at 52 min
2018-10-16 13:00 46 38 34 71 250° 45 54 - 29.28 0 Peak wind: 55 mph (48 kts) from 250° at 07 min
2018-10-16 12:00 47 37 35 66 260° 46 58 - 29.27 0 Peak wind: 57 mph (50 kts) from 250° at 58 min
2018-10-16 11:00 50 38 40 63 260° 44 52 - 29.25 0 Peak wind: 51 mph (45 kts) from 250° at 49 min
2018-10-16 10:00 50 43 40 78 280° 37 48 - 29.23 0 Peak wind: 49 mph (43 kts) from 250° at 34 min
1-hr Precip Total: 0.19"
2018-10-16 09:00 54 53 - 94 220° 18 24 - 29.23 0 Peak wind: 24 mph (21 kts) from 230° at 59 min
1-hr Precip Total: 0.05"
2018-10-16 08:00 55 53 - 94 180° 9 - - 29.28 0 Peak wind: 23 mph (20 kts) from 170° at 28 min
Pressure falling rapidly
2018-10-16 07:00 54 53 - 94 180° 16 25 - 29.34 0 Peak wind: 28 mph (25 kts) from 180° at 10 min
Pressure falling rapidly
1-hr Precip Total: 0.09"
2018-10-16 06:00 53 49 - 87 170° 15 24 - 29.41 0 Peak wind: 26 mph (23 kts) from 180° at 38 min
Pressure falling rapidly
1-hr Precip Total: 0.07"
2018-10-16 05:00 52 50 - 91 170° 16 30 - 29.48 0 Peak wind: 29 mph (26 kts) from 170° at 53 min
Pressure falling rapidly
2018-10-16 04:00 52 50 - 92 170° 15 23 - 29.54 0 Peak wind: 28 mph (25 kts) from 150° at 10 min
Pressure falling rapidly
2018-10-16 03:00 51 49 - 92 160° 17 28 - 29.61 0 Peak wind: 27 mph (24 kts) from 150° at 59 min
Pressure falling rapidly
1-hr Precip Total: 0.03"
2018-10-16 02:00 50 48 - 91 160° 14 22 - 29.70 0 Peak wind: 21 mph (19 kts) from 160° at 57 min
Pressure falling rapidly
1-hr Precip Total: 0.02"
2018-10-16 01:00 50 45 - 80 160° 9 - - 29.78 0 Pressure falling rapidly
2018-10-16 00:00 49 40 45 69 180° 10 - - 29.85 0 None
2018-10-15 23:00 51 37 - 58 170° 7 - - 29.90 0 None

Support USWX by starting your Amazon purchase here.